Time;durP1;ratioP1;P1;durP2;ratioP2;P2;SDS_P1;SDS_P2;PMS_P1;PMS_P2;Temp;Humidity;BMP_temperature;BMP_pressure;BME280_temperature;BME280_humidity;BME280_pressure;Samples;Min_cycle;Max_cycle;Signal;HPM_P1;HPM_P2
2021/01/23 00:00:53;;;;;;;2.70;2.13;;;8.90;57.10;;;;;;5029677;28;20276;-42
2021/01/23 00:03:19;;;;;;;3.40;2.27;;;8.80;57.40;;;;;;5025387;28;20204;-42
2021/01/23 00:05:46;;;;;;;2.27;2.07;;;8.50;57.80;;;;;;5023731;28;20659;-42
2021/01/23 00:08:12;;;;;;;2.87;2.57;;;8.40;58.10;;;;;;5029643;28;20564;-42
2021/01/23 00:10:37;;;;;;;3.50;2.33;;;8.30;58.30;;;;;;5021692;28;20475;-42
2021/01/23 00:13:03;;;;;;;2.53;2.10;;;8.10;58.80;;;;;;5031082;28;20440;-42
2021/01/23 00:15:29;;;;;;;2.20;2.00;;;8.10;59.00;;;;;;5028709;28;20663;-42
2021/01/23 00:17:54;;;;;;;2.90;2.30;;;8.10;59.10;;;;;;5024822;28;20300;-42
2021/01/23 00:20:20;;;;;;;3.20;1.83;;;8.00;59.50;;;;;;5025421;28;20208;-42
2021/01/23 00:22:45;;;;;;;3.73;2.20;;;7.70;59.90;;;;;;5023618;28;20193;-42
2021/01/23 00:25:11;;;;;;;4.03;2.67;;;7.60;60.10;;;;;;5025751;28;20189;-42
2021/01/23 00:27:39;;;;;;;2.10;1.80;;;7.70;60.20;;;;;;5028306;28;20617;-42
2021/01/23 00:30:05;;;;;;;3.00;2.37;;;7.70;60.60;;;;;;5019005;28;20335;-42
2021/01/23 00:32:31;;;;;;;2.97;2.00;;;7.70;60.50;;;;;;5028353;28;20487;-42
2021/01/23 00:34:56;;;;;;;2.23;2.03;;;7.70;60.40;;;;;;5030127;28;20510;-42
2021/01/23 00:37:22;;;;;;;2.80;2.43;;;7.70;60.30;;;;;;5018588;28;20240;-42
2021/01/23 00:39:47;;;;;;;2.40;2.20;;;7.70;60.10;;;;;;5027202;28;20197;-42
2021/01/23 00:42:13;;;;;;;2.50;2.30;;;7.70;60.40;;;;;;5025392;28;20190;-42
2021/01/23 00:44:38;;;;;;;2.27;2.10;;;7.80;60.20;;;;;;5028251;28;20188;-42
2021/01/23 00:47:04;;;;;;;2.03;1.77;;;7.90;60.20;;;;;;5020899;28;20218;-42
2021/01/23 00:49:30;;;;;;;1.90;1.80;;;7.80;60.40;;;;;;5019407;28;20224;-42
2021/01/23 00:51:55;;;;;;;2.00;1.70;;;7.90;60.30;;;;;;5022728;28;20356;-42
2021/01/23 00:54:21;;;;;;;2.07;1.90;;;7.90;60.20;;;;;;5027776;28;20726;-42
2021/01/23 00:56:46;;;;;;;1.50;1.40;;;7.90;59.80;;;;;;5026491;28;20197;-42
2021/01/23 00:59:12;;;;;;;2.37;2.20;;;7.80;60.00;;;;;;5028698;28;20672;-42
2021/01/23 01:01:37;;;;;;;1.70;1.60;;;7.80;60.20;;;;;;5025244;28;20193;-42
2021/01/23 01:04:03;;;;;;;1.80;1.70;;;7.60;61.00;;;;;;5028416;28;20286;-42
2021/01/23 01:06:29;;;;;;;2.37;2.17;;;7.60;61.60;;;;;;5026415;28;20193;-42
2021/01/23 01:08:54;;;;;;;2.50;2.30;;;7.60;61.50;;;;;;5015948;28;20690;-42
2021/01/23 01:11:20;;;;;;;2.27;2.10;;;7.50;61.40;;;;;;5018694;28;20225;-42
2021/01/23 01:13:45;;;;;;;2.33;2.10;;;7.50;61.50;;;;;;5015387;28;20284;-42
2021/01/23 01:16:11;;;;;;;2.80;2.60;;;7.60;61.70;;;;;;5028639;28;20667;-42
2021/01/23 01:18:37;;;;;;;1.87;1.73;;;7.70;61.30;;;;;;5026804;28;20660;-42
2021/01/23 01:21:02;;;;;;;2.83;2.53;;;7.70;61.20;;;;;;5030496;28;20197;-42
2021/01/23 01:23:28;;;;;;;3.17;2.70;;;7.60;61.30;;;;;;5021544;28;20212;-42
2021/01/23 01:25:53;;;;;;;2.47;2.27;;;7.70;61.30;;;;;;5026112;28;20564;-42
2021/01/23 01:28:19;;;;;;;2.50;2.30;;;7.60;61.50;;;;;;5023878;28;20194;-42
2021/01/23 01:30:44;;;;;;;2.53;2.13;;;7.30;62.50;;;;;;5028646;28;20263;-42
2021/01/23 01:33:10;;;;;;;2.23;2.03;;;7.30;63.00;;;;;;5018592;28;20219;-42
2021/01/23 01:35:36;;;;;;;2.53;2.33;;;7.30;63.00;;;;;;5025123;28;20541;-42
2021/01/23 01:38:02;;;;;;;2.00;1.70;;;7.30;63.00;;;;;;5023749;28;20193;-42
2021/01/23 01:40:27;;;;;;;2.03;1.83;;;7.40;62.50;;;;;;5024417;28;20197;-42
2021/01/23 01:42:55;;;;;;;1.70;1.60;;;7.40;62.50;;;;;;5028377;28;20443;-42
2021/01/23 01:45:20;;;;;;;1.90;1.80;;;7.20;62.90;;;;;;5024919;28;20251;-42
2021/01/23 01:47:46;;;;;;;1.97;1.87;;;7.10;63.50;;;;;;5025814;28;20456;-42
2021/01/23 01:50:13;;;;;;;1.67;1.57;;;7.20;63.40;;;;;;5025449;28;20189;-42
2021/01/23 01:52:43;;;;;;;2.00;1.53;;;7.10;63.30;;;;;;5029443;28;20272;-42
2021/01/23 01:55:12;;;;;;;2.80;1.53;;;7.30;63.00;;;;;;5023879;28;20531;-42
2021/01/23 01:57:38;;;;;;;2.30;1.70;;;7.30;62.80;;;;;;5019966;28;20787;-42
2021/01/23 02:00:05;;;;;;;2.43;1.70;;;7.40;62.70;;;;;;5025827;28;20448;-42
2021/01/23 02:02:43;;;;;;;2.23;2.03;;;7.50;62.30;;;;;;5026857;28;20448;-42
2021/01/23 02:05:25;;;;;;;2.43;2.23;;;7.60;61.90;;;;;;5015558;28;20987;-42
2021/01/23 02:08:12;;;;;;;2.97;2.47;;;7.70;61.80;;;;;;5023003;28;20451;-42
2021/01/23 02:11:01;;;;;;;2.70;2.50;;;7.50;61.70;;;;;;5017548;28;20455;-42
2021/01/23 02:13:30;;;;;;;3.10;2.80;;;7.50;61.80;;;;;;5024915;28;22086;-42
2021/01/23 02:16:03;;;;;;;4.87;3.83;;;7.50;62.30;;;;;;5022272;28;20440;-42
2021/01/23 02:18:42;;;;;;;4.60;3.93;;;7.20;62.70;;;;;;5024522;28;20447;-42
2021/01/23 02:21:49;;;;;;;5.00;4.50;;;7.10;63.40;;;;;;5032686;28;20496;-42
2021/01/23 02:24:24;;;;;;;5.70;5.17;;;7.10;63.50;;;;;;5029660;28;20812;-42
2021/01/23 02:26:56;;;;;;;7.00;5.27;;;7.30;63.40;;;;;;5026246;28;21849;-42
2021/01/23 02:29:22;;;;;;;7.83;6.07;;;7.20;63.50;;;;;;5020826;28;20447;-42
2021/01/23 02:31:59;;;;;;;6.13;5.23;;;7.30;63.30;;;;;;5026002;28;20917;-43
2021/01/23 02:34:28;;;;;;;7.10;5.77;;;7.40;63.20;;;;;;5028989;28;20197;-42
2021/01/23 02:36:55;;;;;;;6.80;5.73;;;7.40;63.10;;;;;;5028227;28;20459;-42
2021/01/23 02:39:23;;;;;;;6.07;5.53;;;7.40;63.20;;;;;;5032171;28;20455;-42
2021/01/23 02:41:51;;;;;;;5.30;4.80;;;7.50;63.00;;;;;;5030518;28;21004;-42
2021/01/23 02:44:16;;;;;;;5.17;4.67;;;7.60;62.50;;;;;;5029463;28;20503;-42
2021/01/23 02:46:42;;;;;;;4.50;4.10;;;7.40;62.70;;;;;;5026984;28;20435;-42
2021/01/23 02:49:08;;;;;;;3.93;3.53;;;7.50;63.00;;;;;;5018173;28;20189;-43
2021/01/23 02:51:43;;;;;;;4.43;4.03;;;7.50;62.90;;;;;;5026656;28;20237;-42
2021/01/23 02:54:25;;;;;;;3.63;3.23;;;7.30;63.40;;;;;;5029449;28;20573;-42
2021/01/23 02:56:54;;;;;;;4.03;3.63;;;7.20;63.80;;;;;;5025985;28;20440;-42
2021/01/23 02:59:21;;;;;;;3.27;2.97;;;7.10;64.00;;;;;;5022694;28;20432;-42
2021/01/23 03:01:50;;;;;;;3.27;3.03;;;7.00;64.60;;;;;;5028495;28;20469;-42
2021/01/23 03:04:18;;;;;;;3.13;2.20;;;7.00;64.80;;;;;;5025762;28;20479;-42
2021/01/23 03:06:44;;;;;;;2.77;2.57;;;6.80;65.00;;;;;;5025291;28;20934;-42
2021/01/23 03:09:38;;;;;;;2.97;2.70;;;6.70;65.70;;;;;;5019416;28;20460;-42
2021/01/23 03:12:04;;;;;;;2.50;2.30;;;6.70;66.10;;;;;;5014511;28;20244;-42
2021/01/23 03:14:30;;;;;;;3.00;1.97;;;6.90;65.80;;;;;;5019126;28;20437;-42
2021/01/23 03:16:56;;;;;;;2.40;2.20;;;6.80;65.40;;;;;;5020387;28;20447;-42
2021/01/23 03:19:23;;;;;;;2.40;2.20;;;6.90;65.50;;;;;;5027723;28;20318;-42
2021/01/23 03:21:50;;;;;;;1.97;1.87;;;6.90;65.30;;;;;;5028214;28;20790;-42
2021/01/23 03:24:17;;;;;;;1.90;1.80;;;7.00;65.40;;;;;;5027082;28;20808;-42
2021/01/23 03:26:43;;;;;;;2.37;2.17;;;7.00;65.40;;;;;;5028206;28;20856;-42
2021/01/23 03:29:09;;;;;;;2.33;2.13;;;7.00;65.30;;;;;;5028528;28;20802;-42
2021/01/23 03:31:35;;;;;;;2.17;2.07;;;6.90;65.40;;;;;;5029551;28;20491;-42
2021/01/23 03:34:02;;;;;;;2.17;1.97;;;6.80;66.00;;;;;;5020768;28;20198;-42
2021/01/23 03:36:27;;;;;;;2.03;1.93;;;6.90;65.80;;;;;;5023997;28;20448;-43
2021/01/23 03:38:53;;;;;;;1.70;1.60;;;7.10;65.40;;;;;;5027617;28;20802;-42
2021/01/23 03:41:19;;;;;;;2.20;2.03;;;7.10;65.10;;;;;;5015990;28;20193;-42
2021/01/23 03:43:45;;;;;;;2.13;1.93;;;7.30;64.70;;;;;;5031503;28;20444;-42
2021/01/23 03:46:11;;;;;;;2.10;1.90;;;7.20;64.60;;;;;;5031733;28;20220;-42
2021/01/23 03:48:37;;;;;;;1.90;1.80;;;7.30;64.70;;;;;;5026334;28;20469;-42
2021/01/23 03:51:04;;;;;;;2.00;1.90;;;7.30;64.40;;;;;;5021604;28;20960;-43
2021/01/23 03:53:29;;;;;;;2.30;2.20;;;7.10;64.50;;;;;;5025638;28;20229;-42
2021/01/23 03:55:55;;;;;;;2.30;2.10;;;7.30;64.60;;;;;;5030776;28;20490;-43
2021/01/23 03:58:20;;;;;;;2.00;1.80;;;7.30;64.20;;;;;;5019013;28;20241;-42
2021/01/23 04:00:46;;;;;;;2.53;2.33;;;7.30;64.50;;;;;;5023193;28;20205;-42
2021/01/23 04:03:13;;;;;;;2.40;2.23;;;7.40;64.30;;;;;;5021456;28;20193;-42
2021/01/23 04:05:38;;;;;;;2.37;2.17;;;7.50;63.70;;;;;;5027170;28;20189;-42
2021/01/23 04:08:05;;;;;;;2.33;2.20;;;7.60;63.50;;;;;;5021257;28;21000;-43
2021/01/23 04:10:31;;;;;;;2.03;1.90;;;7.60;63.40;;;;;;5027940;28;20224;-42
2021/01/23 04:12:56;;;;;;;2.47;1.93;;;7.60;63.30;;;;;;5017743;28;20484;-42
2021/01/23 04:15:23;;;;;;;3.00;2.30;;;7.70;62.90;;;;;;5029639;28;20221;-42
2021/01/23 04:17:49;;;;;;;2.40;2.20;;;7.70;63.10;;;;;;5029003;28;20200;-42
2021/01/23 04:20:14;;;;;;;3.80;2.23;;;7.70;63.10;;;;;;5028275;28;20452;-42
2021/01/23 04:22:40;;;;;;;2.00;1.90;;;7.60;63.30;;;;;;5029064;28;20455;-42
2021/01/23 04:25:07;;;;;;;2.80;2.13;;;7.40;63.70;;;;;;5023356;28;20202;-42
2021/01/23 04:27:32;;;;;;;2.63;2.43;;;7.50;64.10;;;;;;5023781;28;20189;-42
2021/01/23 04:29:58;;;;;;;2.40;2.20;;;7.60;64.00;;;;;;5017698;28;20436;-42
2021/01/23 04:32:24;;;;;;;3.30;2.90;;;7.60;63.90;;;;;;5025990;28;20244;-42
2021/01/23 04:34:49;;;;;;;3.77;2.60;;;7.60;63.50;;;;;;5023036;28;20204;-42
2021/01/23 04:37:15;;;;;;;2.70;2.50;;;7.70;63.80;;;;;;5022748;28;20204;-42
2021/01/23 04:39:41;;;;;;;2.93;2.60;;;7.90;63.20;;;;;;5022348;28;20193;-42
2021/01/23 04:42:07;;;;;;;5.00;2.17;;;8.00;62.50;;;;;;5027481;28;20232;-42
2021/01/23 04:44:34;;;;;;;2.60;2.33;;;8.10;62.20;;;;;;5021625;28;20224;-42
2021/01/23 04:47:02;;;;;;;2.20;2.00;;;8.30;61.90;;;;;;5017607;28;20495;-42
2021/01/23 04:49:28;;;;;;;2.20;2.00;;;8.30;61.70;;;;;;5024989;28;20483;-43
2021/01/23 04:51:54;;;;;;;2.30;2.17;;;8.40;61.50;;;;;;5028621;28;20486;-42
2021/01/23 04:54:19;;;;;;;2.57;2.37;;;8.40;61.30;;;;;;5032403;28;21039;-42
2021/01/23 04:56:45;;;;;;;3.10;2.80;;;8.50;61.10;;;;;;5024675;28;20197;-43
2021/01/23 04:59:10;;;;;;;3.97;3.47;;;8.50;61.10;;;;;;5029522;28;20204;-42
2021/01/23 05:01:36;;;;;;;2.87;2.57;;;8.60;60.90;;;;;;5016580;28;20193;-42
2021/01/23 05:04:02;;;;;;;2.77;2.30;;;8.60;60.60;;;;;;5023803;28;20272;-42
2021/01/23 05:06:29;;;;;;;3.67;3.10;;;8.60;60.50;;;;;;5021281;28;20240;-42
2021/01/23 05:08:58;;;;;;;3.40;2.80;;;8.60;60.30;;;;;;5024520;28;20469;-42
2021/01/23 05:11:46;;;;;;;3.03;2.70;;;8.60;60.20;;;;;;5029616;28;20495;-42
2021/01/23 05:14:14;;;;;;;2.90;2.70;;;8.60;60.10;;;;;;5021549;28;20510;-42
2021/01/23 05:16:41;;;;;;;3.07;2.87;;;8.60;60.10;;;;;;5028377;28;20444;-42
2021/01/23 05:19:08;;;;;;;3.20;2.97;;;8.60;60.00;;;;;;5026520;28;20893;-42
2021/01/23 05:21:34;;;;;;;3.70;3.40;;;8.60;60.10;;;;;;5021526;28;20503;-42
2021/01/23 05:24:12;;;;;;;5.20;4.10;;;8.60;60.10;;;;;;5022364;28;20444;-42
2021/01/23 05:26:39;;;;;;;3.50;3.20;;;8.60;60.00;;;;;;5016401;28;20531;-42
2021/01/23 05:29:15;;;;;;;3.90;3.27;;;8.60;60.00;;;;;;5022563;28;20463;-42
2021/01/23 05:31:42;;;;;;;3.47;3.17;;;8.60;59.90;;;;;;5028256;28;20494;-42
2021/01/23 05:34:30;;;;;;;3.97;3.57;;;8.60;59.90;;;;;;5029473;28;21289;-42
2021/01/23 05:36:58;;;;;;;4.37;3.97;;;8.60;59.90;;;;;;5027104;28;20444;-42
2021/01/23 05:39:49;;;;;;;4.00;3.60;;;8.60;59.90;;;;;;5019129;28;20812;-42
2021/01/23 05:42:15;;;;;;;4.27;3.37;;;8.60;59.80;;;;;;5016664;28;20499;-42
2021/01/23 05:44:41;;;;;;;3.73;3.40;;;8.60;59.70;;;;;;5026513;28;20455;-43
2021/01/23 05:47:26;;;;;;;5.93;3.90;;;8.60;59.70;;;;;;5025928;28;20923;-42
2021/01/23 05:49:53;;;;;;;4.40;3.80;;;8.60;59.90;;;;;;5019872;28;20536;-42
2021/01/23 05:52:19;;;;;;;4.50;4.10;;;8.60;59.90;;;;;;5013967;28;20498;-42
2021/01/23 05:54:45;;;;;;;4.27;3.27;;;8.60;59.90;;;;;;5027354;28;20432;-42
2021/01/23 05:57:11;;;;;;;3.30;2.90;;;8.60;59.70;;;;;;5026872;28;20470;-42
2021/01/23 05:59:40;;;;;;;4.60;3.27;;;8.60;59.70;;;;;;5026523;28;20189;-42
2021/01/23 06:02:09;;;;;;;4.00;3.47;;;8.70;59.50;;;;;;5024896;28;20940;-42
2021/01/23 06:04:34;;;;;;;3.97;3.63;;;8.60;59.50;;;;;;5029542;28;20447;-42
2021/01/23 06:07:00;;;;;;;3.30;3.00;;;8.60;59.90;;;;;;5025470;28;20882;-42
2021/01/23 06:09:52;;;;;;;2.30;2.10;;;8.70;59.50;;;;;;5022650;28;20221;-42
2021/01/23 06:12:36;;;;;;;3.33;2.50;;;8.70;59.40;;;;;;5022692;28;20928;-42
2021/01/23 06:15:31;;;;;;;2.90;2.57;;;8.70;59.10;;;;;;5024462;28;20449;-42
2021/01/23 06:18:00;;;;;;;3.60;2.90;;;8.70;59.00;;;;;;5026348;28;20444;-42
2021/01/23 06:20:41;;;;;;;4.03;3.10;;;8.70;59.10;;;;;;5027144;28;20447;-42
2021/01/23 06:23:14;;;;;;;3.47;3.17;;;8.70;59.10;;;;;;5028282;28;20801;-42
2021/01/23 06:25:51;;;;;;;3.60;2.90;;;8.70;59.10;;;;;;5023050;28;20531;-42
2021/01/23 06:28:17;;;;;;;5.60;3.47;;;8.70;59.10;;;;;;5022924;28;20451;-42
2021/01/23 06:30:43;;;;;;;2.93;2.73;;;8.70;59.30;;;;;;5026105;28;20436;-42
2021/01/23 06:33:24;;;;;;;5.33;2.83;;;9.00;62.90;;;;;;5013656;28;20443;-42
2021/01/23 06:36:20;;;;;;;2.80;2.60;;;9.50;63.50;;;;;;5023485;28;20440;-43
2021/01/23 06:39:09;;;;;;;2.67;1.80;;;9.80;60.90;;;;;;5011940;28;20491;-42
2021/01/23 06:41:36;;;;;;;3.70;3.37;;;10.10;58.80;;;;;;5024181;28;20440;-42
2021/01/23 06:44:15;;;;;;;3.60;3.30;;;10.30;57.90;;;;;;5026800;28;20931;-42
2021/01/23 06:46:43;;;;;;;4.87;3.27;;;10.40;57.50;;;;;;5021925;28;20867;-42
2021/01/23 06:49:11;;;;;;;3.50;3.20;;;10.60;56.30;;;;;;5022945;28;20437;-42
2021/01/23 06:51:41;;;;;;;4.50;3.53;;;10.80;55.80;;;;;;5025577;28;21048;-43
2021/01/23 06:54:16;;;;;;;2.87;2.47;;;10.70;54.40;;;;;;5021525;28;20926;-42
2021/01/23 06:56:47;;;;;;;3.07;2.60;;;10.60;54.50;;;;;;5021958;28;20441;-43
2021/01/23 06:59:27;;;;;;;2.70;2.17;;;10.50;54.60;;;;;;5013519;28;20441;-42
2021/01/23 07:02:00;;;;;;;3.40;3.00;;;10.30;54.70;;;;;;5024412;28;20913;-42
2021/01/23 07:04:31;;;;;;;5.33;4.47;;;10.30;55.00;;;;;;5031308;28;20455;-42
2021/01/23 07:06:58;;;;;;;4.90;3.87;;;10.20;54.50;;;;;;5026224;28;20427;-43
2021/01/23 07:09:55;;;;;;;3.90;3.03;;;10.20;55.00;;;;;;5023609;28;20436;-42
2021/01/23 07:12:37;;;;;;;3.90;3.10;;;10.00;54.80;;;;;;5025623;28;20479;-43
2021/01/23 07:15:08;;;;;;;3.07;2.70;;;10.30;55.20;;;;;;5029763;28;20432;-43
2021/01/23 07:17:39;;;;;;;2.73;2.43;;;10.40;54.70;;;;;;5031906;28;20448;-42
2021/01/23 07:20:12;;;;;;;3.17;2.20;;;10.50;54.20;;;;;;5030037;28;20445;-42
2021/01/23 07:22:39;;;;;;;2.50;2.27;;;10.60;54.10;;;;;;5032400;28;20435;-43
2021/01/23 07:25:07;;;;;;;3.67;2.03;;;10.70;53.80;;;;;;5020147;28;20465;-42
2021/01/23 07:27:38;;;;;;;1.97;1.77;;;10.80;53.50;;;;;;5015337;28;20441;-42
2021/01/23 07:30:11;;;;;;;2.20;2.00;;;10.90;53.50;;;;;;5018564;28;20444;-42
2021/01/23 07:32:41;;;;;;;7.33;2.70;;;10.90;53.10;;;;;;5022332;28;20521;-43
2021/01/23 07:35:08;;;;;;;1.90;1.80;;;11.00;53.00;;;;;;5029613;28;20474;-42
2021/01/23 07:37:56;;;;;;;1.97;1.70;;;10.90;52.30;;;;;;5031842;28;20490;-42
2021/01/23 07:40:27;;;;;;;2.57;1.73;;;10.60;52.00;;;;;;5030677;28;20490;-44
2021/01/23 07:42:59;;;;;;;2.37;2.20;;;10.30;52.90;;;;;;5021087;28;20449;-41
2021/01/23 07:45:25;;;;;;;2.17;1.97;;;10.40;53.40;;;;;;5029235;28;20446;-41
2021/01/23 07:47:55;;;;;;;1.60;1.50;;;10.40;53.20;;;;;;5023459;28;21003;-41
2021/01/23 07:50:21;;;;;;;2.33;1.83;;;10.50;53.30;;;;;;5025841;28;20287;-41
2021/01/23 07:52:47;;;;;;;3.27;2.97;;;10.60;53.80;;;;;;5026843;28;21351;-41
2021/01/23 07:55:13;;;;;;;3.07;2.87;;;10.80;53.30;;;;;;5028761;28;20452;-41
2021/01/23 07:57:38;;;;;;;4.40;3.33;;;10.90;53.00;;;;;;5031411;28;20185;-41
2021/01/23 08:00:06;;;;;;;4.53;2.80;;;11.00;52.80;;;;;;5021536;28;20983;-41
2021/01/23 08:02:52;;;;;;;4.83;2.77;;;11.10;52.40;;;;;;5022166;28;20439;-41
2021/01/23 08:05:18;;;;;;;3.13;2.50;;;11.20;52.30;;;;;;5022564;28;20475;-41
2021/01/23 08:07:44;;;;;;;3.23;2.80;;;11.10;51.90;;;;;;5024566;28;20455;-41
2021/01/23 08:10:12;;;;;;;3.67;2.70;;;11.20;52.40;;;;;;5018876;28;20432;-42
2021/01/23 08:12:40;;;;;;;2.30;2.20;;;11.20;52.40;;;;;;5017322;28;20479;-42
2021/01/23 08:15:08;;;;;;;2.70;2.50;;;11.30;52.10;;;;;;5025213;28;20469;-41
2021/01/23 08:17:41;;;;;;;3.80;2.50;;;11.40;52.10;;;;;;5019801;28;20443;-42
2021/01/23 08:20:09;;;;;;;3.60;2.70;;;11.40;51.90;;;;;;5019280;28;20440;-42
2021/01/23 08:22:54;;;;;;;2.60;2.17;;;11.40;51.60;;;;;;5031540;28;20420;-41
2021/01/23 08:25:28;;;;;;;3.07;2.80;;;11.30;51.60;;;;;;5022467;28;20449;-42
2021/01/23 08:27:55;;;;;;;3.00;2.77;;;11.30;51.70;;;;;;5010993;28;20433;-42
2021/01/23 08:30:23;;;;;;;3.90;2.97;;;11.30;51.90;;;;;;5017468;28;20432;-42
2021/01/23 08:32:49;;;;;;;2.50;2.30;;;11.20;51.70;;;;;;5014382;28;20488;-42
2021/01/23 08:35:16;;;;;;;3.90;2.90;;;11.30;51.40;;;;;;5012677;28;20861;-42
2021/01/23 08:37:42;;;;;;;2.90;2.60;;;11.20;51.20;;;;;;5011746;28;20924;-41
2021/01/23 08:40:08;;;;;;;3.57;2.80;;;11.30;51.50;;;;;;5012368;28;20463;-41
2021/01/23 08:42:34;;;;;;;3.77;2.93;;;11.10;51.30;;;;;;5011721;28;20206;-42
2021/01/23 08:44:59;;;;;;;2.80;2.60;;;11.10;51.50;;;;;;5012306;28;20500;-42
2021/01/23 08:47:25;;;;;;;3.90;2.87;;;11.10;51.70;;;;;;5027943;28;20433;-42
2021/01/23 08:49:51;;;;;;;3.30;2.53;;;11.20;51.90;;;;;;5011581;28;20194;-42
2021/01/23 08:52:16;;;;;;;3.07;2.53;;;11.20;51.70;;;;;;5017270;28;20299;-42
2021/01/23 08:54:42;;;;;;;2.90;2.70;;;11.10;51.50;;;;;;5038051;28;20279;-42
2021/01/23 08:57:07;;;;;;;3.30;3.03;;;11.10;51.70;;;;;;5029745;28;20199;-42
2021/01/23 08:59:33;;;;;;;2.90;2.60;;;10.80;51.40;;;;;;5021085;28;20198;-41
2021/01/23 09:01:58;;;;;;;2.90;1.90;;;10.90;52.80;;;;;;5013892;28;20197;-41
2021/01/23 09:04:24;;;;;;;2.80;2.57;;;10.90;52.30;;;;;;5011370;28;20297;-42
2021/01/23 09:06:49;;;;;;;2.37;2.00;;;10.80;52.20;;;;;;5016824;28;20190;-42
2021/01/23 09:09:15;;;;;;;4.00;2.60;;;10.90;52.10;;;;;;5021233;28;20340;-42
2021/01/23 09:11:41;;;;;;;2.63;2.43;;;11.00;52.20;;;;;;5011219;28;20225;-42
2021/01/23 09:14:06;;;;;;;2.80;2.40;;;11.00;52.10;;;;;;5013229;28;20189;-41
2021/01/23 09:16:32;;;;;;;2.30;2.10;;;11.10;52.20;;;;;;5030713;28;20323;-42
2021/01/23 09:19:01;;;;;;;2.13;1.93;;;11.00;51.50;;;;;;5021327;28;20542;-41
2021/01/23 09:21:27;;;;;;;3.07;2.23;;;11.10;51.60;;;;;;5022012;28;20278;-42
2021/01/23 09:23:53;;;;;;;2.53;2.33;;;11.10;51.90;;;;;;5020612;28;20425;-41
2021/01/23 09:26:18;;;;;;;5.80;3.00;;;11.10;51.80;;;;;;5011064;28;20433;-41
2021/01/23 09:28:44;;;;;;;2.83;2.63;;;11.00;51.30;;;;;;5022259;28;20226;-41
2021/01/23 09:31:10;;;;;;;2.50;2.30;;;11.00;51.60;;;;;;5031035;28;20228;-41
2021/01/23 09:33:35;;;;;;;5.90;2.43;;;11.00;52.70;;;;;;5030507;28;20219;-42
2021/01/23 09:36:01;;;;;;;2.67;2.47;;;11.00;51.80;;;;;;5030765;28;20732;-43
2021/01/23 09:38:27;;;;;;;6.93;3.70;;;11.10;51.90;;;;;;5029238;28;20189;-42
2021/01/23 09:40:53;;;;;;;8.10;4.47;;;11.20;51.90;;;;;;5028299;28;20429;-42
2021/01/23 09:43:19;;;;;;;6.60;4.67;;;11.00;52.90;;;;;;5010634;28;20202;-42
2021/01/23 09:45:45;;;;;;;7.37;4.07;;;11.10;53.00;;;;;;5011110;28;20202;-42
2021/01/23 09:48:10;;;;;;;4.47;3.53;;;11.00;52.70;;;;;;5009099;28;21290;-42
2021/01/23 09:50:36;;;;;;;7.00;4.07;;;11.10;52.90;;;;;;5025495;28;20252;-42
2021/01/23 09:53:02;;;;;;;6.97;3.57;;;11.00;53.10;;;;;;5020638;28;20236;-42
2021/01/23 09:55:27;;;;;;;5.10;3.47;;;11.30;53.20;;;;;;5030016;28;20683;-42
2021/01/23 09:57:53;;;;;;;4.43;3.03;;;11.40;53.10;;;;;;5023010;28;20208;-42
2021/01/23 10:00:19;;;;;;;3.53;3.20;;;11.50;52.80;;;;;;5022878;28;20703;-42
2021/01/23 10:02:44;;;;;;;4.77;3.33;;;11.50;52.50;;;;;;5025626;28;20193;-42
2021/01/23 10:05:10;;;;;;;6.73;4.37;;;11.70;52.00;;;;;;5027131;28;20523;-42
2021/01/23 10:07:36;;;;;;;4.23;3.67;;;11.80;52.10;;;;;;5030032;28;20208;-42
2021/01/23 10:10:04;;;;;;;11.13;4.40;;;12.00;52.20;;;;;;5028751;28;20425;-42
2021/01/23 10:12:31;;;;;;;2.90;2.37;;;12.00;51.60;;;;;;5025344;28;20224;-42
2021/01/23 10:14:57;;;;;;;2.20;1.93;;;12.00;51.40;;;;;;5020144;28;20455;-42
2021/01/23 10:17:23;;;;;;;4.60;3.40;;;12.10;52.10;;;;;;5026379;28;20453;-42
2021/01/23 10:19:49;;;;;;;5.13;3.30;;;12.00;51.70;;;;;;5024917;28;20193;-42
2021/01/23 10:22:15;;;;;;;4.10;3.80;;;12.10;52.00;;;;;;5020170;28;20628;-42
2021/01/23 10:24:41;;;;;;;3.87;3.17;;;12.20;51.50;;;;;;5022768;28;20960;-42
2021/01/23 10:27:06;;;;;;;3.27;2.90;;;12.50;51.30;;;;;;5028373;28;20440;-42
2021/01/23 10:29:32;;;;;;;3.90;2.80;;;12.60;51.10;;;;;;5029855;28;20189;-42
2021/01/23 10:31:58;;;;;;;2.90;2.40;;;12.60;50.00;;;;;;5024569;28;20228;-42
2021/01/23 10:34:23;;;;;;;2.80;2.43;;;12.70;49.80;;;;;;5025296;28;20212;-42
2021/01/23 10:36:49;;;;;;;3.80;2.40;;;12.70;49.10;;;;;;5031741;28;20192;-42
2021/01/23 10:39:14;;;;;;;2.93;2.10;;;12.80;48.90;;;;;;5027903;28;20193;-42
2021/01/23 10:41:40;;;;;;;2.97;2.47;;;12.40;49.30;;;;;;5016534;28;20194;-42
2021/01/23 10:44:06;;;;;;;2.47;2.10;;;12.60;50.10;;;;;;5025689;28;20202;-42
2021/01/23 10:46:32;;;;;;;1.83;1.73;;;12.40;50.00;;;;;;5022030;28;20201;-42
2021/01/23 10:48:58;;;;;;;2.27;2.10;;;12.30;50.20;;;;;;5021314;28;20439;-42
2021/01/23 10:51:23;;;;;;;2.23;2.13;;;11.90;50.10;;;;;;5023458;28;20304;-42
2021/01/23 10:53:49;;;;;;;2.60;2.40;;;12.00;51.40;;;;;;5027329;28;20233;-42
2021/01/23 10:56:15;;;;;;;3.40;3.10;;;12.10;51.60;;;;;;5021951;28;20186;-42
2021/01/23 10:58:42;;;;;;;2.73;2.50;;;12.30;50.80;;;;;;5029538;28;20568;-42
2021/01/23 11:01:07;;;;;;;2.47;2.13;;;12.40;51.20;;;;;;5022845;28;20443;-42
2021/01/23 11:03:33;;;;;;;2.33;1.70;;;12.40;50.90;;;;;;5026500;28;20436;-42
2021/01/23 11:05:59;;;;;;;2.77;2.33;;;12.50;50.50;;;;;;5021899;28;20273;-42
2021/01/23 11:08:25;;;;;;;2.40;2.20;;;12.60;50.00;;;;;;5028061;28;20558;-42
2021/01/23 11:10:51;;;;;;;2.37;2.10;;;12.60;49.80;;;;;;5029378;28;20200;-42
2021/01/23 11:13:17;;;;;;;2.40;1.90;;;12.50;49.00;;;;;;5029886;28;21197;-42
2021/01/23 11:15:43;;;;;;;2.10;1.90;;;12.20;50.00;;;;;;5028283;28;20443;-42
2021/01/23 11:18:09;;;;;;;3.57;2.40;;;12.40;49.50;;;;;;5025117;28;20268;-43
2021/01/23 11:20:34;;;;;;;2.00;1.83;;;12.50;50.00;;;;;;5031756;28;20189;-42
2021/01/23 11:23:00;;;;;;;2.57;2.37;;;12.50;49.60;;;;;;5028268;28;20475;-42
2021/01/23 11:25:27;;;;;;;2.73;2.40;;;12.50;50.10;;;;;;5023025;28;20197;-42
2021/01/23 11:27:53;;;;;;;2.70;2.37;;;12.70;49.80;;;;;;5031753;28;20552;-42
2021/01/23 11:30:23;;;;;;;2.33;2.13;;;12.70;50.20;;;;;;5023568;28;20510;-42
2021/01/23 11:32:48;;;;;;;2.63;2.00;;;12.80;50.30;;;;;;5030613;28;20523;-41
2021/01/23 11:35:14;;;;;;;3.10;2.40;;;12.90;50.00;;;;;;5026576;28;20455;-41
2021/01/23 11:37:40;;;;;;;2.57;2.20;;;13.00;50.30;;;;;;5014538;28;20198;-41
2021/01/23 11:40:06;;;;;;;3.17;2.30;;;12.90;50.80;;;;;;5030215;28;20193;-41
2021/01/23 11:42:32;;;;;;;6.43;2.60;;;12.80;49.00;;;;;;5028603;28;20252;-41
2021/01/23 11:44:58;;;;;;;4.03;3.10;;;12.80;50.10;;;;;;5023093;28;20444;-41
2021/01/23 11:47:23;;;;;;;6.53;2.87;;;12.70;51.00;;;;;;5029196;28;20515;-41
2021/01/23 11:49:49;;;;;;;2.47;2.27;;;12.60;51.80;;;;;;5026125;28;20231;-41
2021/01/23 11:52:14;;;;;;;4.27;3.13;;;12.70;51.50;;;;;;5031934;28;20235;-41
2021/01/23 11:54:40;;;;;;;4.47;3.37;;;12.70;50.90;;;;;;5032384;28;20201;-41
2021/01/23 11:57:08;;;;;;;4.07;3.17;;;12.40;51.10;;;;;;5016414;28;20213;-41
2021/01/23 11:59:37;;;;;;;4.10;3.60;;;12.50;51.20;;;;;;5022486;28;20197;-41
2021/01/23 12:02:03;;;;;;;3.93;3.60;;;11.80;51.70;;;;;;5022675;28;20455;-41
2021/01/23 12:04:28;;;;;;;3.30;2.93;;;11.80;53.40;;;;;;5027587;28;20435;-41
2021/01/23 12:06:54;;;;;;;5.23;4.53;;;11.70;53.20;;;;;;5017018;28;20225;-42
2021/01/23 12:09:20;;;;;;;3.20;2.90;;;11.80;52.90;;;;;;5028871;28;20200;-41
2021/01/23 12:11:47;;;;;;;2.73;2.53;;;11.80;52.80;;;;;;5027332;28;21015;-41
2021/01/23 12:14:15;;;;;;;4.00;3.13;;;12.00;52.40;;;;;;5025188;28;20197;-41
2021/01/23 12:16:41;;;;;;;2.87;2.60;;;12.00;52.80;;;;;;5017633;28;20807;-41
2021/01/23 12:19:07;;;;;;;3.90;2.37;;;12.20;52.70;;;;;;5021258;28;20432;-41
2021/01/23 12:21:33;;;;;;;2.40;1.93;;;12.30;52.00;;;;;;5026439;28;20664;-41
2021/01/23 12:23:58;;;;;;;3.50;2.87;;;12.30;51.70;;;;;;5023737;28;20467;-41
2021/01/23 12:26:24;;;;;;;3.50;2.40;;;12.30;51.30;;;;;;5031640;28;20193;-41
2021/01/23 12:28:50;;;;;;;5.80;4.07;;;12.40;51.40;;;;;;5030982;28;20189;-41
2021/01/23 12:31:16;;;;;;;2.70;2.50;;;12.50;51.40;;;;;;5030829;28;20274;-41
2021/01/23 12:33:41;;;;;;;2.80;2.60;;;12.40;50.60;;;;;;5022023;28;20792;-41
2021/01/23 12:36:07;;;;;;;2.70;2.50;;;12.40;51.00;;;;;;5025755;28;20225;-41
2021/01/23 12:38:33;;;;;;;3.20;2.80;;;12.50;51.30;;;;;;5030700;28;20216;-41
2021/01/23 12:40:58;;;;;;;3.80;2.90;;;12.60;50.50;;;;;;5020208;28;20252;-41
2021/01/23 12:43:27;;;;;;;4.53;3.30;;;12.70;50.20;;;;;;5026370;28;20218;-46
2021/01/23 12:45:52;;;;;;;4.90;3.30;;;12.70;50.60;;;;;;5020717;28;20192;-41
2021/01/23 12:48:18;;;;;;;2.60;2.40;;;12.70;51.30;;;;;;5030330;28;20466;-41
2021/01/23 12:50:43;;;;;;;4.23;3.10;;;12.70;51.00;;;;;;5015094;28;20194;-41
2021/01/23 12:53:09;;;;;;;3.20;2.90;;;12.80;50.90;;;;;;5031298;28;20267;-42
2021/01/23 12:55:36;;;;;;;2.70;2.50;;;12.90;50.70;;;;;;5021791;28;20189;-41
2021/01/23 12:58:02;;;;;;;3.10;2.77;;;12.90;50.80;;;;;;5026913;28;20228;-41